sensor_id;sensor_type;location;lat;lon;timestamp;P1;durP1;ratioP1;P2;durP2;ratioP2
2021;SDS011;1015;49.756;6.994;2023-10-09T00:01:25;7.70;;;4.87;;
2021;SDS011;1015;49.756;6.994;2023-10-09T00:03:52;5.90;;;4.27;;
2021;SDS011;1015;49.756;6.994;2023-10-09T00:06:21;5.50;;;4.93;;
2021;SDS011;1015;49.756;6.994;2023-10-09T00:08:57;5.73;;;4.23;;
2021;SDS011;1015;49.756;6.994;2023-10-09T00:11:36;10.60;;;4.83;;
2021;SDS011;1015;49.756;6.994;2023-10-09T00:14:08;8.30;;;4.37;;
2021;SDS011;1015;49.756;6.994;2023-10-09T00:16:36;5.90;;;4.20;;
2021;SDS011;1015;49.756;6.994;2023-10-09T00:19:09;6.50;;;4.40;;
2021;SDS011;1015;49.756;6.994;2023-10-09T00:21:42;6.77;;;4.30;;
2021;SDS011;1015;49.756;6.994;2023-10-09T00:24:10;4.60;;;3.60;;
2021;SDS011;1015;49.756;6.994;2023-10-09T00:26:42;7.27;;;4.07;;
2021;SDS011;1015;49.756;6.994;2023-10-09T00:29:12;7.53;;;4.27;;
2021;SDS011;1015;49.756;6.994;2023-10-09T00:31:47;7.10;;;3.53;;
2021;SDS011;1015;49.756;6.994;2023-10-09T00:34:19;7.87;;;4.40;;
2021;SDS011;1015;49.756;6.994;2023-10-09T00:36:47;5.93;;;4.20;;
2021;SDS011;1015;49.756;6.994;2023-10-09T00:39:17;5.50;;;4.40;;
2021;SDS011;1015;49.756;6.994;2023-10-09T00:41:58;6.70;;;3.93;;
2021;SDS011;1015;49.756;6.994;2023-10-09T00:44:29;8.57;;;4.53;;
2021;SDS011;1015;49.756;6.994;2023-10-09T00:47:03;5.43;;;4.00;;
2021;SDS011;1015;49.756;6.994;2023-10-09T00:49:36;5.97;;;4.10;;
2021;SDS011;1015;49.756;6.994;2023-10-09T00:52:08;6.00;;;4.50;;
2021;SDS011;1015;49.756;6.994;2023-10-09T00:54:43;8.03;;;4.23;;
2021;SDS011;1015;49.756;6.994;2023-10-09T00:57:16;7.70;;;4.60;;
2021;SDS011;1015;49.756;6.994;2023-10-09T00:59:50;5.63;;;4.20;;
2021;SDS011;1015;49.756;6.994;2023-10-09T01:02:24;8.10;;;4.50;;
2021;SDS011;1015;49.756;6.994;2023-10-09T01:05:00;6.93;;;4.20;;
2021;SDS011;1015;49.756;6.994;2023-10-09T01:07:44;6.50;;;4.73;;
2021;SDS011;1015;49.756;6.994;2023-10-09T01:10:11;5.93;;;4.17;;
2021;SDS011;1015;49.756;6.994;2023-10-09T01:12:41;5.57;;;4.07;;
2021;SDS011;1015;49.756;6.994;2023-10-09T01:15:11;4.43;;;3.93;;
2021;SDS011;1015;49.756;6.994;2023-10-09T01:17:59;6.30;;;4.00;;
2021;SDS011;1015;49.756;6.994;2023-10-09T01:20:27;6.30;;;4.33;;
2021;SDS011;1015;49.756;6.994;2023-10-09T01:23:03;6.30;;;4.40;;
2021;SDS011;1015;49.756;6.994;2023-10-09T01:25:32;6.60;;;4.40;;
2021;SDS011;1015;49.756;6.994;2023-10-09T01:28:07;6.70;;;4.23;;
2021;SDS011;1015;49.756;6.994;2023-10-09T01:30:35;7.50;;;4.70;;
2021;SDS011;1015;49.756;6.994;2023-10-09T01:33:06;6.57;;;4.90;;
2021;SDS011;1015;49.756;6.994;2023-10-09T01:35:40;6.13;;;4.80;;
2021;SDS011;1015;49.756;6.994;2023-10-09T01:38:15;5.20;;;4.23;;
2021;SDS011;1015;49.756;6.994;2023-10-09T01:40:44;5.97;;;4.50;;
2021;SDS011;1015;49.756;6.994;2023-10-09T01:43:16;7.30;;;5.47;;
2021;SDS011;1015;49.756;6.994;2023-10-09T01:45:44;6.93;;;5.10;;
2021;SDS011;1015;49.756;6.994;2023-10-09T01:48:12;5.93;;;4.80;;
2021;SDS011;1015;49.756;6.994;2023-10-09T01:50:45;6.40;;;4.93;;
2021;SDS011;1015;49.756;6.994;2023-10-09T01:53:13;7.03;;;4.77;;
2021;SDS011;1015;49.756;6.994;2023-10-09T01:55:44;5.33;;;4.47;;
2021;SDS011;1015;49.756;6.994;2023-10-09T01:58:11;5.73;;;4.63;;
2021;SDS011;1015;49.756;6.994;2023-10-09T02:00:49;6.97;;;5.40;;
2021;SDS011;1015;49.756;6.994;2023-10-09T02:03:20;6.80;;;4.80;;
2021;SDS011;1015;49.756;6.994;2023-10-09T02:05:52;5.50;;;4.80;;
2021;SDS011;1015;49.756;6.994;2023-10-09T02:08:24;7.90;;;5.33;;
2021;SDS011;1015;49.756;6.994;2023-10-09T02:10:56;5.67;;;4.60;;
2021;SDS011;1015;49.756;6.994;2023-10-09T02:13:23;6.73;;;5.13;;
2021;SDS011;1015;49.756;6.994;2023-10-09T02:15:55;8.83;;;5.37;;
2021;SDS011;1015;49.756;6.994;2023-10-09T02:18:38;7.53;;;5.20;;
2021;SDS011;1015;49.756;6.994;2023-10-09T02:21:19;6.40;;;5.17;;
2021;SDS011;1015;49.756;6.994;2023-10-09T02:23:58;9.83;;;4.93;;
2021;SDS011;1015;49.756;6.994;2023-10-09T02:26:31;5.30;;;4.40;;
2021;SDS011;1015;49.756;6.994;2023-10-09T02:29:19;5.63;;;4.43;;
2021;SDS011;1015;49.756;6.994;2023-10-09T02:31:49;5.20;;;4.70;;
2021;SDS011;1015;49.756;6.994;2023-10-09T02:34:18;7.20;;;4.83;;
2021;SDS011;1015;49.756;6.994;2023-10-09T02:36:48;7.13;;;4.70;;
2021;SDS011;1015;49.756;6.994;2023-10-09T02:39:22;6.30;;;4.30;;
2021;SDS011;1015;49.756;6.994;2023-10-09T02:41:52;8.20;;;4.40;;
2021;SDS011;1015;49.756;6.994;2023-10-09T02:44:25;7.00;;;5.00;;
2021;SDS011;1015;49.756;6.994;2023-10-09T02:46:55;5.53;;;4.70;;
2021;SDS011;1015;49.756;6.994;2023-10-09T02:49:23;5.97;;;5.07;;
2021;SDS011;1015;49.756;6.994;2023-10-09T02:51:51;7.70;;;4.40;;
2021;SDS011;1015;49.756;6.994;2023-10-09T02:54:19;5.80;;;4.47;;
2021;SDS011;1015;49.756;6.994;2023-10-09T02:56:58;5.37;;;4.40;;
2021;SDS011;1015;49.756;6.994;2023-10-09T02:59:32;5.23;;;4.63;;
2021;SDS011;1015;49.756;6.994;2023-10-09T03:01:59;5.80;;;5.00;;
2021;SDS011;1015;49.756;6.994;2023-10-09T03:04:26;6.70;;;4.80;;
2021;SDS011;1015;49.756;6.994;2023-10-09T03:06:56;6.60;;;4.83;;
2021;SDS011;1015;49.756;6.994;2023-10-09T03:09:23;7.40;;;5.03;;
2021;SDS011;1015;49.756;6.994;2023-10-09T03:11:53;6.37;;;5.00;;
2021;SDS011;1015;49.756;6.994;2023-10-09T03:14:28;5.73;;;4.80;;
2021;SDS011;1015;49.756;6.994;2023-10-09T03:16:55;10.30;;;5.07;;
2021;SDS011;1015;49.756;6.994;2023-10-09T03:19:23;6.37;;;5.43;;
2021;SDS011;1015;49.756;6.994;2023-10-09T03:21:51;7.07;;;5.13;;
2021;SDS011;1015;49.756;6.994;2023-10-09T03:24:18;7.37;;;4.97;;
2021;SDS011;1015;49.756;6.994;2023-10-09T03:26:47;6.30;;;4.60;;
2021;SDS011;1015;49.756;6.994;2023-10-09T03:29:15;6.57;;;4.90;;
2021;SDS011;1015;49.756;6.994;2023-10-09T03:31:45;6.33;;;5.33;;
2021;SDS011;1015;49.756;6.994;2023-10-09T03:34:15;5.80;;;4.77;;
2021;SDS011;1015;49.756;6.994;2023-10-09T03:36:43;6.27;;;4.27;;
2021;SDS011;1015;49.756;6.994;2023-10-09T03:39:10;8.50;;;4.60;;
2021;SDS011;1015;49.756;6.994;2023-10-09T03:41:49;6.90;;;5.00;;
2021;SDS011;1015;49.756;6.994;2023-10-09T03:44:17;6.13;;;4.47;;
2021;SDS011;1015;49.756;6.994;2023-10-09T03:46:45;7.07;;;5.13;;
2021;SDS011;1015;49.756;6.994;2023-10-09T03:49:16;6.50;;;5.07;;
2021;SDS011;1015;49.756;6.994;2023-10-09T03:51:48;6.77;;;4.60;;
2021;SDS011;1015;49.756;6.994;2023-10-09T03:54:15;8.60;;;5.07;;
2021;SDS011;1015;49.756;6.994;2023-10-09T03:56:45;5.80;;;4.93;;
2021;SDS011;1015;49.756;6.994;2023-10-09T03:59:15;7.47;;;5.23;;
2021;SDS011;1015;49.756;6.994;2023-10-09T04:01:42;7.30;;;5.30;;
2021;SDS011;1015;49.756;6.994;2023-10-09T04:04:12;6.30;;;4.57;;
2021;SDS011;1015;49.756;6.994;2023-10-09T04:06:39;5.70;;;5.00;;
2021;SDS011;1015;49.756;6.994;2023-10-09T04:09:07;6.37;;;4.80;;
2021;SDS011;1015;49.756;6.994;2023-10-09T04:11:53;5.93;;;4.50;;
2021;SDS011;1015;49.756;6.994;2023-10-09T04:14:39;8.77;;;4.30;;
2021;SDS011;1015;49.756;6.994;2023-10-09T04:17:14;6.90;;;4.83;;
2021;SDS011;1015;49.756;6.994;2023-10-09T04:19:57;8.73;;;4.80;;
2021;SDS011;1015;49.756;6.994;2023-10-09T04:22:42;8.33;;;4.67;;
2021;SDS011;1015;49.756;6.994;2023-10-09T04:25:15;7.40;;;5.20;;
2021;SDS011;1015;49.756;6.994;2023-10-09T04:27:50;5.37;;;4.63;;
2021;SDS011;1015;49.756;6.994;2023-10-09T04:30:26;4.70;;;4.10;;
2021;SDS011;1015;49.756;6.994;2023-10-09T04:32:53;7.50;;;5.03;;
2021;SDS011;1015;49.756;6.994;2023-10-09T04:35:26;8.37;;;4.87;;
2021;SDS011;1015;49.756;6.994;2023-10-09T04:37:57;6.93;;;5.03;;
2021;SDS011;1015;49.756;6.994;2023-10-09T04:40:30;7.13;;;5.10;;
2021;SDS011;1015;49.756;6.994;2023-10-09T04:43:17;8.67;;;6.07;;
2021;SDS011;1015;49.756;6.994;2023-10-09T04:45:46;7.47;;;5.30;;
2021;SDS011;1015;49.756;6.994;2023-10-09T04:48:33;9.90;;;5.40;;
2021;SDS011;1015;49.756;6.994;2023-10-09T04:51:04;7.37;;;5.50;;
2021;SDS011;1015;49.756;6.994;2023-10-09T04:53:46;7.23;;;5.40;;
2021;SDS011;1015;49.756;6.994;2023-10-09T04:56:15;6.87;;;4.77;;
2021;SDS011;1015;49.756;6.994;2023-10-09T04:58:42;9.27;;;5.50;;
2021;SDS011;1015;49.756;6.994;2023-10-09T05:01:11;9.13;;;5.80;;
2021;SDS011;1015;49.756;6.994;2023-10-09T05:03:40;10.73;;;5.53;;
2021;SDS011;1015;49.756;6.994;2023-10-09T05:06:12;7.77;;;5.63;;
2021;SDS011;1015;49.756;6.994;2023-10-09T05:09:08;6.50;;;5.57;;
2021;SDS011;1015;49.756;6.994;2023-10-09T05:11:34;7.30;;;5.37;;
2021;SDS011;1015;49.756;6.994;2023-10-09T05:14:15;7.53;;;4.60;;
2021;SDS011;1015;49.756;6.994;2023-10-09T05:16:51;7.33;;;5.33;;
2021;SDS011;1015;49.756;6.994;2023-10-09T05:19:26;8.17;;;5.30;;
2021;SDS011;1015;49.756;6.994;2023-10-09T05:22:21;7.93;;;5.73;;
2021;SDS011;1015;49.756;6.994;2023-10-09T05:25:01;6.70;;;5.47;;
2021;SDS011;1015;49.756;6.994;2023-10-09T05:27:40;8.37;;;5.40;;
2021;SDS011;1015;49.756;6.994;2023-10-09T05:30:15;6.73;;;5.93;;
2021;SDS011;1015;49.756;6.994;2023-10-09T05:32:52;7.90;;;6.10;;
2021;SDS011;1015;49.756;6.994;2023-10-09T05:35:23;7.63;;;5.20;;
2021;SDS011;1015;49.756;6.994;2023-10-09T05:38:05;10.03;;;6.30;;
2021;SDS011;1015;49.756;6.994;2023-10-09T05:40:40;9.30;;;5.93;;
2021;SDS011;1015;49.756;6.994;2023-10-09T05:43:08;8.70;;;6.10;;
2021;SDS011;1015;49.756;6.994;2023-10-09T05:45:55;9.63;;;5.70;;
2021;SDS011;1015;49.756;6.994;2023-10-09T05:48:34;8.53;;;5.30;;
2021;SDS011;1015;49.756;6.994;2023-10-09T05:51:24;10.03;;;5.90;;
2021;SDS011;1015;49.756;6.994;2023-10-09T05:54:12;7.27;;;6.17;;
2021;SDS011;1015;49.756;6.994;2023-10-09T05:56:57;13.27;;;5.77;;
2021;SDS011;1015;49.756;6.994;2023-10-09T05:59:50;6.63;;;5.30;;
2021;SDS011;1015;49.756;6.994;2023-10-09T06:02:34;12.53;;;7.13;;
2021;SDS011;1015;49.756;6.994;2023-10-09T06:05:24;10.20;;;6.17;;
2021;SDS011;1015;49.756;6.994;2023-10-09T06:08:07;9.43;;;6.23;;
2021;SDS011;1015;49.756;6.994;2023-10-09T06:10:39;7.20;;;5.50;;
2021;SDS011;1015;49.756;6.994;2023-10-09T06:13:07;8.77;;;5.80;;
2021;SDS011;1015;49.756;6.994;2023-10-09T06:15:54;8.90;;;5.30;;
2021;SDS011;1015;49.756;6.994;2023-10-09T06:18:39;6.27;;;4.77;;
2021;SDS011;1015;49.756;6.994;2023-10-09T06:21:19;9.13;;;5.50;;
2021;SDS011;1015;49.756;6.994;2023-10-09T06:24:00;8.70;;;5.53;;
2021;SDS011;1015;49.756;6.994;2023-10-09T06:26:41;7.23;;;5.60;;
2021;SDS011;1015;49.756;6.994;2023-10-09T06:29:17;16.83;;;5.93;;
2021;SDS011;1015;49.756;6.994;2023-10-09T06:32:00;8.40;;;5.80;;
2021;SDS011;1015;49.756;6.994;2023-10-09T06:34:50;7.67;;;5.87;;
2021;SDS011;1015;49.756;6.994;2023-10-09T06:37:17;10.20;;;6.17;;
2021;SDS011;1015;49.756;6.994;2023-10-09T06:39:59;10.37;;;6.30;;
2021;SDS011;1015;49.756;6.994;2023-10-09T06:42:58;8.50;;;5.30;;
2021;SDS011;1015;49.756;6.994;2023-10-09T06:45:34;6.93;;;5.50;;
2021;SDS011;1015;49.756;6.994;2023-10-09T06:48:10;7.60;;;5.53;;
2021;SDS011;1015;49.756;6.994;2023-10-09T06:50:51;10.80;;;5.70;;
2021;SDS011;1015;49.756;6.994;2023-10-09T06:53:29;6.53;;;5.43;;
2021;SDS011;1015;49.756;6.994;2023-10-09T06:56:10;8.30;;;5.23;;
2021;SDS011;1015;49.756;6.994;2023-10-09T06:58:49;10.77;;;5.60;;
2021;SDS011;1015;49.756;6.994;2023-10-09T07:01:19;9.00;;;5.10;;
2021;SDS011;1015;49.756;6.994;2023-10-09T07:03:54;10.07;;;5.00;;
2021;SDS011;1015;49.756;6.994;2023-10-09T07:06:25;9.03;;;5.57;;
2021;SDS011;1015;49.756;6.994;2023-10-09T07:09:09;7.40;;;5.10;;
2021;SDS011;1015;49.756;6.994;2023-10-09T07:11:46;9.23;;;5.13;;
2021;SDS011;1015;49.756;6.994;2023-10-09T07:14:29;10.10;;;5.80;;
2021;SDS011;1015;49.756;6.994;2023-10-09T07:17:13;6.20;;;5.13;;
2021;SDS011;1015;49.756;6.994;2023-10-09T07:19:48;11.57;;;5.50;;
2021;SDS011;1015;49.756;6.994;2023-10-09T07:22:42;9.97;;;5.27;;
2021;SDS011;1015;49.756;6.994;2023-10-09T07:25:29;9.03;;;5.17;;
2021;SDS011;1015;49.756;6.994;2023-10-09T07:28:08;11.83;;;4.97;;
2021;SDS011;1015;49.756;6.994;2023-10-09T07:30:55;5.10;;;4.33;;
2021;SDS011;1015;49.756;6.994;2023-10-09T07:33:23;7.47;;;5.00;;
2021;SDS011;1015;49.756;6.994;2023-10-09T07:36:16;6.43;;;4.70;;
2021;SDS011;1015;49.756;6.994;2023-10-09T07:38:54;8.77;;;4.60;;
2021;SDS011;1015;49.756;6.994;2023-10-09T07:41:21;8.27;;;5.03;;
2021;SDS011;1015;49.756;6.994;2023-10-09T07:44:03;6.50;;;4.90;;
2021;SDS011;1015;49.756;6.994;2023-10-09T07:46:45;8.50;;;4.77;;
2021;SDS011;1015;49.756;6.994;2023-10-09T07:49:17;6.93;;;4.93;;
2021;SDS011;1015;49.756;6.994;2023-10-09T07:51:49;9.50;;;4.90;;
2021;SDS011;1015;49.756;6.994;2023-10-09T07:54:17;8.87;;;6.13;;
2021;SDS011;1015;49.756;6.994;2023-10-09T07:56:57;11.10;;;5.80;;
2021;SDS011;1015;49.756;6.994;2023-10-09T07:59:33;7.47;;;5.20;;
2021;SDS011;1015;49.756;6.994;2023-10-09T08:02:07;10.40;;;6.37;;
2021;SDS011;1015;49.756;6.994;2023-10-09T08:04:39;8.10;;;5.43;;
2021;SDS011;1015;49.756;6.994;2023-10-09T08:07:14;9.27;;;5.07;;
2021;SDS011;1015;49.756;6.994;2023-10-09T08:09:50;8.40;;;5.53;;
2021;SDS011;1015;49.756;6.994;2023-10-09T08:12:42;6.97;;;4.50;;
2021;SDS011;1015;49.756;6.994;2023-10-09T08:15:45;5.40;;;4.30;;
2021;SDS011;1015;49.756;6.994;2023-10-09T08:18:17;7.10;;;5.50;;
2021;SDS011;1015;49.756;6.994;2023-10-09T08:20:53;8.27;;;4.47;;
2021;SDS011;1015;49.756;6.994;2023-10-09T08:23:34;6.17;;;4.90;;
2021;SDS011;1015;49.756;6.994;2023-10-09T08:26:14;7.03;;;4.83;;
2021;SDS011;1015;49.756;6.994;2023-10-09T08:28:53;5.80;;;4.23;;
2021;SDS011;1015;49.756;6.994;2023-10-09T08:31:40;8.43;;;4.53;;
2021;SDS011;1015;49.756;6.994;2023-10-09T08:34:12;7.70;;;4.10;;
2021;SDS011;1015;49.756;6.994;2023-10-09T08:36:49;5.43;;;4.13;;
2021;SDS011;1015;49.756;6.994;2023-10-09T08:39:17;7.73;;;5.30;;
2021;SDS011;1015;49.756;6.994;2023-10-09T08:41:50;5.37;;;4.50;;
2021;SDS011;1015;49.756;6.994;2023-10-09T08:44:19;6.93;;;5.60;;
2021;SDS011;1015;49.756;6.994;2023-10-09T08:46:47;7.50;;;5.30;;
2021;SDS011;1015;49.756;6.994;2023-10-09T08:49:17;7.10;;;4.67;;
2021;SDS011;1015;49.756;6.994;2023-10-09T08:51:46;7.17;;;4.60;;
2021;SDS011;1015;49.756;6.994;2023-10-09T08:54:13;6.47;;;4.70;;
2021;SDS011;1015;49.756;6.994;2023-10-09T08:56:42;6.43;;;4.40;;
2021;SDS011;1015;49.756;6.994;2023-10-09T08:59:14;4.93;;;4.40;;
2021;SDS011;1015;49.756;6.994;2023-10-09T09:01:44;5.77;;;4.40;;
2021;SDS011;1015;49.756;6.994;2023-10-09T09:06:58;6.57;;;4.40;;
2021;SDS011;1015;49.756;6.994;2023-10-09T09:09:27;6.03;;;4.53;;
2021;SDS011;1015;49.756;6.994;2023-10-09T09:11:58;6.63;;;4.57;;
2021;SDS011;1015;49.756;6.994;2023-10-09T09:14:35;7.13;;;4.90;;
2021;SDS011;1015;49.756;6.994;2023-10-09T09:17:03;8.33;;;5.30;;
2021;SDS011;1015;49.756;6.994;2023-10-09T09:19:36;6.83;;;5.13;;
2021;SDS011;1015;49.756;6.994;2023-10-09T09:22:05;6.07;;;4.73;;
2021;SDS011;1015;49.756;6.994;2023-10-09T09:24:39;5.80;;;4.17;;
2021;SDS011;1015;49.756;6.994;2023-10-09T09:27:12;4.33;;;3.93;;
2021;SDS011;1015;49.756;6.994;2023-10-09T09:29:43;6.60;;;4.40;;
2021;SDS011;1015;49.756;6.994;2023-10-09T09:32:19;5.10;;;3.93;;
2021;SDS011;1015;49.756;6.994;2023-10-09T09:34:55;5.73;;;4.10;;
2021;SDS011;1015;49.756;6.994;2023-10-09T09:37:28;6.23;;;3.60;;
2021;SDS011;1015;49.756;6.994;2023-10-09T09:39:58;5.30;;;4.20;;
2021;SDS011;1015;49.756;6.994;2023-10-09T09:42:27;5.33;;;3.93;;
2021;SDS011;1015;49.756;6.994;2023-10-09T09:44:56;6.73;;;4.00;;
2021;SDS011;1015;49.756;6.994;2023-10-09T09:47:25;5.90;;;4.23;;
2021;SDS011;1015;49.756;6.994;2023-10-09T09:49:53;6.13;;;4.37;;
2021;SDS011;1015;49.756;6.994;2023-10-09T09:52:24;7.90;;;4.20;;
2021;SDS011;1015;49.756;6.994;2023-10-09T09:54:54;4.80;;;3.60;;
2021;SDS011;1015;49.756;6.994;2023-10-09T09:57:23;6.10;;;3.53;;
2021;SDS011;1015;49.756;6.994;2023-10-09T09:59:54;5.77;;;3.90;;
2021;SDS011;1015;49.756;6.994;2023-10-09T10:02:24;6.83;;;4.30;;
2021;SDS011;1015;49.756;6.994;2023-10-09T10:04:55;5.00;;;3.93;;
2021;SDS011;1015;49.756;6.994;2023-10-09T10:07:24;4.27;;;3.77;;
2021;SDS011;1015;49.756;6.994;2023-10-09T10:09:55;5.33;;;3.97;;
2021;SDS011;1015;49.756;6.994;2023-10-09T10:15:11;4.67;;;3.90;;
2021;SDS011;1015;49.756;6.994;2023-10-09T10:20:24;4.53;;;3.50;;
2021;SDS011;1015;49.756;6.994;2023-10-09T10:22:51;6.40;;;4.10;;
2021;SDS011;1015;49.756;6.994;2023-10-09T10:25:43;5.47;;;3.87;;
2021;SDS011;1015;49.756;6.994;2023-10-09T10:28:18;4.57;;;3.87;;
2021;SDS011;1015;49.756;6.994;2023-10-09T10:31:01;5.70;;;3.90;;
2021;SDS011;1015;49.756;6.994;2023-10-09T10:33:34;5.17;;;3.67;;
2021;SDS011;1015;49.756;6.994;2023-10-09T10:36:20;5.60;;;4.10;;
2021;SDS011;1015;49.756;6.994;2023-10-09T10:38:51;6.03;;;3.97;;
2021;SDS011;1015;49.756;6.994;2023-10-09T10:41:31;5.30;;;3.80;;
2021;SDS011;1015;49.756;6.994;2023-10-09T10:44:01;6.23;;;4.43;;
2021;SDS011;1015;49.756;6.994;2023-10-09T10:46:56;7.50;;;4.33;;
2021;SDS011;1015;49.756;6.994;2023-10-09T10:49:23;4.37;;;3.70;;
2021;SDS011;1015;49.756;6.994;2023-10-09T10:52:01;7.50;;;4.20;;
2021;SDS011;1015;49.756;6.994;2023-10-09T10:54:40;5.10;;;3.80;;
2021;SDS011;1015;49.756;6.994;2023-10-09T10:57:35;6.43;;;4.10;;
2021;SDS011;1015;49.756;6.994;2023-10-09T11:00:21;4.67;;;3.80;;
2021;SDS011;1015;49.756;6.994;2023-10-09T11:03:06;6.00;;;3.90;;
2021;SDS011;1015;49.756;6.994;2023-10-09T11:05:42;6.10;;;4.30;;
2021;SDS011;1015;49.756;6.994;2023-10-09T11:08:15;5.50;;;4.20;;
2021;SDS011;1015;49.756;6.994;2023-10-09T11:10:47;6.13;;;4.50;;
2021;SDS011;1015;49.756;6.994;2023-10-09T11:13:23;6.33;;;4.07;;
2021;SDS011;1015;49.756;6.994;2023-10-09T11:15:58;7.20;;;4.30;;
2021;SDS011;1015;49.756;6.994;2023-10-09T11:18:53;6.53;;;4.10;;
2021;SDS011;1015;49.756;6.994;2023-10-09T11:21:22;5.33;;;4.13;;
2021;SDS011;1015;49.756;6.994;2023-10-09T11:23:56;6.27;;;4.10;;
2021;SDS011;1015;49.756;6.994;2023-10-09T11:26:34;6.93;;;4.73;;
2021;SDS011;1015;49.756;6.994;2023-10-09T11:29:06;5.90;;;4.30;;
2021;SDS011;1015;49.756;6.994;2023-10-09T11:31:38;5.57;;;4.27;;
2021;SDS011;1015;49.756;6.994;2023-10-09T11:34:08;5.30;;;3.93;;
2021;SDS011;1015;49.756;6.994;2023-10-09T11:36:53;4.90;;;3.97;;
2021;SDS011;1015;49.756;6.994;2023-10-09T11:39:23;5.00;;;3.90;;
2021;SDS011;1015;49.756;6.994;2023-10-09T11:41:59;6.93;;;4.70;;
2021;SDS011;1015;49.756;6.994;2023-10-09T11:44:34;5.10;;;4.10;;
2021;SDS011;1015;49.756;6.994;2023-10-09T11:47:04;7.43;;;4.77;;
2021;SDS011;1015;49.756;6.994;2023-10-09T11:49:49;5.10;;;4.20;;
2021;SDS011;1015;49.756;6.994;2023-10-09T11:52:36;6.20;;;4.50;;
2021;SDS011;1015;49.756;6.994;2023-10-09T11:55:33;7.20;;;4.70;;
2021;SDS011;1015;49.756;6.994;2023-10-09T11:58:00;6.70;;;4.00;;
2021;SDS011;1015;49.756;6.994;2023-10-09T12:00:29;5.17;;;4.10;;
2021;SDS011;1015;49.756;6.994;2023-10-09T12:03:07;6.90;;;4.60;;
2021;SDS011;1015;49.756;6.994;2023-10-09T12:05:36;6.77;;;4.33;;
2021;SDS011;1015;49.756;6.994;2023-10-09T12:08:07;6.80;;;4.03;;
2021;SDS011;1015;49.756;6.994;2023-10-09T12:10:34;4.90;;;4.10;;
2021;SDS011;1015;49.756;6.994;2023-10-09T12:13:03;4.90;;;4.20;;
2021;SDS011;1015;49.756;6.994;2023-10-09T12:15:30;6.20;;;4.50;;
2021;SDS011;1015;49.756;6.994;2023-10-09T12:18:03;5.80;;;4.10;;
2021;SDS011;1015;49.756;6.994;2023-10-09T12:20:32;5.03;;;4.50;;
2021;SDS011;1015;49.756;6.994;2023-10-09T12:23:01;5.57;;;4.47;;
2021;SDS011;1015;49.756;6.994;2023-10-09T12:25:31;5.47;;;4.73;;
2021;SDS011;1015;49.756;6.994;2023-10-09T12:27:58;5.60;;;4.30;;
2021;SDS011;1015;49.756;6.994;2023-10-09T12:30:26;6.00;;;4.50;;
2021;SDS011;1015;49.756;6.994;2023-10-09T12:32:54;6.10;;;4.23;;
2021;SDS011;1015;49.756;6.994;2023-10-09T12:35:22;7.00;;;5.00;;
2021;SDS011;1015;49.756;6.994;2023-10-09T12:37:50;6.10;;;4.67;;
2021;SDS011;1015;49.756;6.994;2023-10-09T12:40:19;6.23;;;4.30;;
2021;SDS011;1015;49.756;6.994;2023-10-09T12:42:49;8.30;;;4.57;;
2021;SDS011;1015;49.756;6.994;2023-10-09T12:45:18;7.90;;;4.60;;
2021;SDS011;1015;49.756;6.994;2023-10-09T12:47:51;6.50;;;5.00;;
2021;SDS011;1015;49.756;6.994;2023-10-09T12:50:18;5.53;;;4.57;;
2021;SDS011;1015;49.756;6.994;2023-10-09T12:52:52;5.27;;;4.40;;
2021;SDS011;1015;49.756;6.994;2023-10-09T12:55:21;5.60;;;4.67;;
2021;SDS011;1015;49.756;6.994;2023-10-09T12:57:56;7.40;;;4.53;;
2021;SDS011;1015;49.756;6.994;2023-10-09T13:00:25;5.83;;;4.53;;
2021;SDS011;1015;49.756;6.994;2023-10-09T13:02:54;5.93;;;4.37;;
2021;SDS011;1015;49.756;6.994;2023-10-09T13:05:21;5.10;;;4.60;;
2021;SDS011;1015;49.756;6.994;2023-10-09T13:07:52;8.83;;;4.87;;
2021;SDS011;1015;49.756;6.994;2023-10-09T13:10:23;5.80;;;4.50;;
2021;SDS011;1015;49.756;6.994;2023-10-09T13:12:50;5.30;;;4.67;;
2021;SDS011;1015;49.756;6.994;2023-10-09T13:15:21;7.23;;;4.90;;
2021;SDS011;1015;49.756;6.994;2023-10-09T13:17:48;5.70;;;4.37;;
2021;SDS011;1015;49.756;6.994;2023-10-09T13:20:18;5.00;;;4.50;;
2021;SDS011;1015;49.756;6.994;2023-10-09T13:22:46;5.40;;;4.43;;
2021;SDS011;1015;49.756;6.994;2023-10-09T13:25:14;6.13;;;4.70;;
2021;SDS011;1015;49.756;6.994;2023-10-09T13:27:51;6.40;;;4.70;;
2021;SDS011;1015;49.756;6.994;2023-10-09T13:30:19;6.20;;;5.13;;
2021;SDS011;1015;49.756;6.994;2023-10-09T13:32:48;6.43;;;4.80;;
2021;SDS011;1015;49.756;6.994;2023-10-09T13:35:16;5.67;;;4.77;;
2021;SDS011;1015;49.756;6.994;2023-10-09T13:37:44;5.73;;;4.50;;
2021;SDS011;1015;49.756;6.994;2023-10-09T13:40:19;6.27;;;4.90;;
2021;SDS011;1015;49.756;6.994;2023-10-09T13:42:53;6.83;;;5.00;;
2021;SDS011;1015;49.756;6.994;2023-10-09T13:45:24;8.03;;;4.50;;
2021;SDS011;1015;49.756;6.994;2023-10-09T13:47:52;5.80;;;4.80;;
2021;SDS011;1015;49.756;6.994;2023-10-09T13:50:20;4.97;;;4.17;;
2021;SDS011;1015;49.756;6.994;2023-10-09T13:52:47;5.83;;;4.40;;
2021;SDS011;1015;49.756;6.994;2023-10-09T13:55:14;5.40;;;4.47;;
2021;SDS011;1015;49.756;6.994;2023-10-09T13:57:41;6.30;;;4.63;;
2021;SDS011;1015;49.756;6.994;2023-10-09T14:00:13;5.60;;;4.50;;
2021;SDS011;1015;49.756;6.994;2023-10-09T14:02:44;6.23;;;4.30;;
2021;SDS011;1015;49.756;6.994;2023-10-09T14:05:12;6.87;;;4.73;;
2021;SDS011;1015;49.756;6.994;2023-10-09T14:07:39;6.33;;;4.40;;
2021;SDS011;1015;49.756;6.994;2023-10-09T14:10:07;5.90;;;4.73;;
2021;SDS011;1015;49.756;6.994;2023-10-09T14:12:42;7.20;;;4.77;;
2021;SDS011;1015;49.756;6.994;2023-10-09T14:15:09;6.13;;;4.50;;
2021;SDS011;1015;49.756;6.994;2023-10-09T14:17:43;5.27;;;4.77;;
2021;SDS011;1015;49.756;6.994;2023-10-09T14:20:11;7.37;;;5.33;;
2021;SDS011;1015;49.756;6.994;2023-10-09T14:22:57;5.37;;;4.53;;
2021;SDS011;1015;49.756;6.994;2023-10-09T14:25:31;5.87;;;4.37;;
2021;SDS011;1015;49.756;6.994;2023-10-09T14:27:58;6.30;;;4.80;;
2021;SDS011;1015;49.756;6.994;2023-10-09T14:30:25;6.20;;;4.40;;
2021;SDS011;1015;49.756;6.994;2023-10-09T14:33:00;5.97;;;4.50;;
2021;SDS011;1015;49.756;6.994;2023-10-09T14:35:28;9.07;;;4.70;;
2021;SDS011;1015;49.756;6.994;2023-10-09T14:37:57;5.63;;;4.50;;
2021;SDS011;1015;49.756;6.994;2023-10-09T14:40:27;7.03;;;4.70;;
2021;SDS011;1015;49.756;6.994;2023-10-09T14:42:56;6.00;;;4.33;;
2021;SDS011;1015;49.756;6.994;2023-10-09T14:45:24;4.43;;;4.03;;
2021;SDS011;1015;49.756;6.994;2023-10-09T14:47:52;9.87;;;5.10;;
2021;SDS011;1015;49.756;6.994;2023-10-09T14:50:21;6.33;;;4.73;;
2021;SDS011;1015;49.756;6.994;2023-10-09T14:52:48;8.27;;;5.10;;
2021;SDS011;1015;49.756;6.994;2023-10-09T14:55:15;6.73;;;4.77;;
2021;SDS011;1015;49.756;6.994;2023-10-09T14:57:46;6.23;;;4.57;;
2021;SDS011;1015;49.756;6.994;2023-10-09T15:00:15;6.00;;;4.60;;
2021;SDS011;1015;49.756;6.994;2023-10-09T15:02:48;5.63;;;4.60;;
2021;SDS011;1015;49.756;6.994;2023-10-09T15:05:15;6.10;;;4.90;;
2021;SDS011;1015;49.756;6.994;2023-10-09T15:07:44;6.90;;;4.70;;
2021;SDS011;1015;49.756;6.994;2023-10-09T15:10:11;7.40;;;4.87;;
2021;SDS011;1015;49.756;6.994;2023-10-09T15:12:40;5.90;;;4.63;;
2021;SDS011;1015;49.756;6.994;2023-10-09T15:15:08;6.93;;;5.10;;
2021;SDS011;1015;49.756;6.994;2023-10-09T15:17:38;6.63;;;5.03;;
2021;SDS011;1015;49.756;6.994;2023-10-09T15:20:08;8.20;;;4.73;;
2021;SDS011;1015;49.756;6.994;2023-10-09T15:22:38;8.83;;;4.93;;
2021;SDS011;1015;49.756;6.994;2023-10-09T15:25:07;5.13;;;4.27;;
2021;SDS011;1015;49.756;6.994;2023-10-09T15:27:34;6.80;;;4.93;;
2021;SDS011;1015;49.756;6.994;2023-10-09T15:30:05;6.50;;;4.60;;
2021;SDS011;1015;49.756;6.994;2023-10-09T15:32:33;6.93;;;4.60;;
2021;SDS011;1015;49.756;6.994;2023-10-09T15:35:01;8.00;;;5.00;;
2021;SDS011;1015;49.756;6.994;2023-10-09T15:37:28;8.70;;;5.33;;
2021;SDS011;1015;49.756;6.994;2023-10-09T15:39:59;5.90;;;4.47;;
2021;SDS011;1015;49.756;6.994;2023-10-09T15:42:40;6.97;;;4.73;;
2021;SDS011;1015;49.756;6.994;2023-10-09T15:45:07;7.40;;;5.27;;
2021;SDS011;1015;49.756;6.994;2023-10-09T15:47:35;6.17;;;4.70;;
2021;SDS011;1015;49.756;6.994;2023-10-09T15:50:02;7.50;;;5.40;;
2021;SDS011;1015;49.756;6.994;2023-10-09T15:52:29;6.60;;;5.30;;
2021;SDS011;1015;49.756;6.994;2023-10-09T15:54:56;5.70;;;4.77;;
2021;SDS011;1015;49.756;6.994;2023-10-09T15:57:24;8.23;;;5.10;;
2021;SDS011;1015;49.756;6.994;2023-10-09T15:59:52;6.53;;;4.90;;
2021;SDS011;1015;49.756;6.994;2023-10-09T16:02:19;5.80;;;4.77;;